Taylor Springs, IL (62089)

12:13 PM CST on March 01, 2017 (GMT -0600)
Old Quarry Trail | | Change Station

Elev 636 ft 39.18 °N, 89.59 °W | Updated 3 seconds ago

Overcast
Overcast
44.8 °F
Feels Like 41 °F
N
6.0
Wind Variable Wind from West
Gusts 17.0 mph

Today
High -- | Low -- °F
--% Chance of Precip.
Yesterday
High -- | Low -- °F
Precip. -- in
Pressure 29.88 in
Visibility 10.0 miles
Clouds Scattered Clouds 2600 ft
Scattered Clouds 3100 ft
Overcast 4000 ft
Windchill 41 °F
Dew Point 37 °F
Humidity 73%
Rainfall 0.43 in
Snow Depth Not available.
6:30 AM 5:50 PM
Waxing Crescent, 12% visible
METAR K3LF 011755Z AUTO 29020G31KT 10SM SCT026 SCT031 OVC040 07/03 A2988 RMK AO2 T00660025 10108 20065
Pressure 29.88 in
Visibility 10.0 miles
Clouds Scattered Clouds 2600 ft
Scattered Clouds 3100 ft
Overcast 4000 ft
Windchill 41 °F
Dew Point 37 °F
Humidity 73%
Rainfall 0.43 in
Snow Depth Not available.
6:30 AM 5:50 PM
Waxing Crescent, 12% visible
METAR K3LF 011755Z AUTO 29020G31KT 10SM SCT026 SCT031 OVC040 07/03 A2988 RMK AO2 T00660025 10108 20065

Get Your Daily Forecast Email!

Thanks for signing up!

Be on the lookout for a verification email in your inbox.

You'll start receiving the daily forecast at 8 AM.

×

10-Day Weather Forecast

Almanac

Astronomy

Mar. 01, 2017 Rise Set
Actual Time
Civil Twilight
Nautical Twilight
Astronomical Twilight
Moon
Length of Visible Light
Length of Day
Tomorrow will be .
, % of the Moon is Illuminated

Today's Extremes

State Highs State Lows

Community

WunderPhotos

Upload Photos

1,962,540 photos uploaded!

WunderBlog® & News

Nearby

Air Quality

  Air Quality AQ Index Pollutant
Not available.

Snow Depth

Station Depth Elevation

Earthquake Activity

City Distance Mag. Time & Date
Minimum magnitude displayed is 2.5.

Coastal Water Temperatures

Place Temperature

Stations

Nearby Weather Stations

Station Location Temp. Windchill Dew Point Humidity Wind Precip. Elev Updated Type
                   

Watches & Warnings

There are currently no watches in effect.